Time;durP1;ratioP1;P1;durP2;ratioP2;P2;SDS_P1;SDS_P2;PMS_P1;PMS_P2;Temp;Humidity;BMP_temperature;BMP_pressure;BME280_temperature;BME280_humidity;BME280_pressure;Samples;Min_cycle;Max_cycle;Signal;HPM_P1;HPM_P2
2022/10/03 00:03:16;;;;;;;;;2.00;2.00;;;;;13.30;96.66;99435.09;6280417;20;2731535;-53
2022/10/03 00:05:56;;;;;;;;;3.50;2.75;;;;;13.29;97.27;99427.13;6294362;20;1791016;-58
2022/10/03 00:09:03;;;;;;;;;2.00;2.00;;;;;13.35;96.86;99437.44;6310620;20;2744011;-56
2022/10/03 00:12:08;;;;;;;;;3.00;3.00;;;;;13.25;97.46;99434.56;6277221;20;2742034;-54
2022/10/03 00:14:59;;;;;;;;;4.00;4.00;;;;;13.21;97.32;99441.16;6276778;20;2751334;-53
2022/10/03 00:17:42;;;;;;;;;5.00;3.50;;;;;13.31;97.15;99428.72;6277771;20;2754605;-53
2022/10/03 00:20:18;;;;;;;;;3.00;3.00;;;;;13.24;97.33;99430.13;6281429;20;2743003;-53
2022/10/03 00:23:26;;;;;;;;;4.00;4.00;;;;;13.16;97.65;99427.16;6279463;20;2751357;-53
2022/10/03 00:27:02;;;;;;;;;4.00;3.50;;;;;13.09;98.02;99432.19;6277784;20;2754501;-53
2022/10/03 00:29:56;;;;;;;;;4.00;4.00;;;;;13.02;98.61;99435.44;6271881;20;2756501;-54
2022/10/03 00:32:40;;;;;;;;;4.00;3.50;;;;;13.04;98.65;99434.34;6276299;20;2751306;-50
2022/10/03 00:35:55;;;;;;;;;4.00;2.50;;;;;13.14;98.02;99442.63;6278949;20;2752366;-51
2022/10/03 00:38:36;;;;;;;;;3.20;3.20;;;;;13.06;97.82;99437.81;6293450;20;2749364;-48
2022/10/03 00:41:30;;;;;;;;;5.00;3.00;;;;;12.98;98.28;99444.72;6310425;20;2752410;-51
2022/10/03 00:44:25;;;;;;;;;4.00;4.00;;;;;12.96;98.46;99443.03;6280312;20;2748197;-52
2022/10/03 00:47:45;;;;;;;;;2.50;2.50;;;;;12.90;98.47;99442.59;6283904;20;2730587;-52
2022/10/03 00:50:58;;;;;;;;;3.00;3.00;;;;;12.88;98.56;99441.88;6297133;20;1808364;-57
2022/10/03 00:54:12;;;;;;;;;4.00;4.00;;;;;12.93;98.17;99448.66;6315266;20;2751343;-54
2022/10/03 00:57:39;;;;;;;;;4.00;4.00;;;;;12.95;97.88;99440.44;6280603;20;2748188;-57
2022/10/03 01:00:27;;;;;;;;;1.50;1.50;;;;;12.88;98.04;99434.66;6298321;20;1808803;-58
2022/10/03 01:03:23;;;;;;;;;6.00;4.50;;;;;12.90;98.07;99438.09;6309792;20;2750290;-53
2022/10/03 01:06:28;;;;;;;;;4.00;4.00;;;;;12.90;97.70;99443.50;6280303;20;2754533;-58
2022/10/03 01:09:20;;;;;;;;;3.00;3.00;;;;;12.88;97.97;99439.19;6283675;20;2754444;-58
2022/10/03 01:12:14;;;;;;;;;4.00;3.00;;;;;12.82;98.16;99443.22;6281601;20;2729516;-54
2022/10/03 01:15:18;;;;;;;;;4.00;4.00;;;;;12.89;97.86;99430.97;6280258;20;2749306;-51
2022/10/03 01:18:01;;;;;;;;;4.00;4.00;;;;;12.87;97.92;99440.16;6279935;20;2750275;-50
2022/10/03 01:21:19;;;;;;;;;4.00;4.00;;;;;12.86;97.87;99442.00;6278884;20;2756687;-51
2022/10/03 01:24:36;;;;;;;;;4.00;4.00;;;;;12.73;97.73;99431.25;6281108;20;2754583;-51
2022/10/03 01:27:11;;;;;;;;;5.00;5.00;;;;;12.78;97.96;99433.63;6280590;20;2732575;-51
2022/10/03 01:33:27;;;;;;;;;3.00;3.00;;;;;12.65;98.71;99425.59;6282793;20;2735791;-46
2022/10/03 01:36:42;;;;;;;;;3.00;3.00;;;;;12.64;98.86;99423.88;6278720;20;2748284;-49
2022/10/03 01:39:57;;;;;;;;;3.00;3.00;;;;;12.62;98.62;99433.91;6275564;20;2744065;-52
2022/10/03 01:43:10;;;;;;;;;6.00;5.00;;;;;12.55;98.95;99435.31;6279321;20;2744033;-50
2022/10/03 01:46:37;;;;;;;;;3.00;3.00;;;;;12.52;99.14;99433.72;6279023;20;2747150;-53
2022/10/03 01:49:40;;;;;;;;;4.00;4.00;;;;;12.57;99.06;99444.16;6279356;20;2749315;-52
2022/10/03 01:52:52;;;;;;;;;5.00;5.00;;;;;12.50;99.63;99446.44;6280415;20;2748250;-52
2022/10/03 01:55:56;;;;;;;;;6.00;5.50;;;;;12.48;99.46;99442.13;6280518;20;2738842;-56
2022/10/03 01:58:38;;;;;;;;;5.00;5.00;;;;;12.50;99.28;99443.72;6280756;20;2733845;-52
2022/10/03 02:01:42;;;;;;;;;6.50;4.00;;;;;12.47;99.07;99453.88;6278137;20;2751382;-56
2022/10/03 02:04:17;;;;;;;;;4.50;4.50;;;;;12.41;99.29;99451.66;6280787;20;2746123;-48
2022/10/03 02:07:40;;;;;;;;;5.50;5.00;;;;;12.25;99.84;99446.53;6280981;20;2748208;-46
2022/10/03 02:10:47;;;;;;;;;4.00;4.00;;;;;12.28;99.79;99447.16;6280877;20;2750311;-50
2022/10/03 02:13:37;;;;;;;;;5.00;4.00;;;;;12.26;100.00;99449.06;6279568;20;2745086;-51
2022/10/03 02:16:17;;;;;;;;;6.00;4.00;;;;;12.30;99.87;99447.03;6278717;20;2742997;-48
2022/10/03 02:19:22;;;;;;;;;5.00;5.00;;;;;12.20;99.94;99443.28;6279858;20;2741980;-50
2022/10/03 02:21:54;;;;;;;;;4.00;4.00;;;;;12.27;99.86;99461.59;6279493;20;2754595;-48
2022/10/03 02:24:38;;;;;;;;;2.00;2.00;;;;;12.24;99.59;99467.19;6282612;20;2740997;-49
2022/10/03 02:28:05;;;;;;;;;3.50;3.50;;;;;12.21;100.00;99474.63;6282338;20;2749259;-48
2022/10/03 02:31:05;;;;;;;;;4.20;4.00;;;;;12.23;99.41;99487.00;6313715;20;2747276;-50
2022/10/03 02:34:20;;;;;;;;;5.00;4.00;;;;;12.08;99.92;99480.00;6316869;20;2632717;-47
2022/10/03 02:37:07;;;;;;;;;7.00;5.00;;;;;12.13;99.72;99485.91;6276423;20;2748191;-50
2022/10/03 02:39:50;;;;;;;;;6.00;4.50;;;;;12.16;99.13;99487.53;6276973;20;2749241;-49
2022/10/03 02:43:17;;;;;;;;;6.00;6.00;;;;;12.19;98.81;99496.28;6277083;20;2738831;-50
2022/10/03 02:46:09;;;;;;;;;6.00;6.00;;;;;12.10;98.50;99488.84;6276048;20;2745163;-51
2022/10/03 02:49:13;;;;;;;;;4.50;4.50;;;;;12.20;98.66;99486.38;6278310;20;2746123;-48
2022/10/03 02:52:26;;;;;;;;;4.00;4.00;;;;;12.17;98.31;99486.59;6277154;20;2746155;-49
2022/10/03 02:55:39;;;;;;;;;8.00;6.00;;;;;12.20;97.87;99480.97;6279698;20;2740012;-53
2022/10/03 02:58:51;;;;;;;;;5.50;5.50;;;;;12.18;98.12;99480.22;6279073;20;2736759;-49
2022/10/03 03:01:47;;;;;;;;;8.00;6.00;;;;;12.19;97.94;99484.63;6278286;20;2729453;-48
2022/10/03 03:05:07;;;;;;;;;7.00;4.00;;;;;12.16;97.54;99495.59;6280035;20;2747070;-51
2022/10/03 03:07:52;;;;;;;;;6.00;6.00;;;;;12.07;98.17;99497.13;6281793;20;2739885;-50
2022/10/03 03:11:07;;;;;;;;;6.00;5.00;;;;;12.01;98.53;99493.06;6279335;20;2756530;-51
2022/10/03 03:14:41;;;;;;;;;5.00;5.00;;;;;12.05;98.26;99493.69;6282388;20;2736757;-50
2022/10/03 03:17:32;;;;;;;;;6.00;6.00;;;;;12.05;98.33;99496.38;6278137;20;2741954;-55
2022/10/03 03:20:31;;;;;;;;;4.00;4.00;;;;;12.05;98.10;99504.44;6276742;20;2748199;-55
2022/10/03 03:23:26;;;;;;;;;5.00;5.00;;;;;12.07;97.82;99503.38;6278851;20;2745055;-53
2022/10/03 03:26:16;;;;;;;;;6.00;6.00;;;;;12.00;98.49;99499.38;6277832;20;2740911;-52
2022/10/03 03:29:30;;;;;;;;;7.50;5.50;;;;;12.04;97.83;99502.75;6279155;20;2737878;-49
2022/10/03 03:32:52;;;;;;;;;7.00;7.00;;;;;12.11;97.26;99509.38;6275676;20;2733661;-51
2022/10/03 03:35:56;;;;;;;;;6.00;6.00;;;;;12.06;97.38;99506.19;6275342;20;2742034;-53
2022/10/03 03:39:22;;;;;;;;;7.00;7.00;;;;;12.03;97.39;99501.88;6278554;20;2731529;-54
2022/10/03 03:42:35;;;;;;;;;8.00;6.50;;;;;12.12;96.96;99503.06;6277754;20;2746115;-52
2022/10/03 03:45:07;;;;;;;;;6.00;6.00;;;;;12.01;97.26;99500.28;6277430;20;2739919;-55
2022/10/03 03:48:01;;;;;;;;;8.50;7.00;;;;;11.95;97.56;99504.22;6275242;20;2735758;-53
2022/10/03 03:51:06;;;;;;;;;7.00;6.00;;;;;11.85;97.95;99508.53;6277792;20;2747180;-51
2022/10/03 03:54:18;;;;;;;;;7.00;7.00;;;;;11.90;97.80;99509.09;6276924;20;2740923;-53
2022/10/03 03:57:01;;;;;;;;;10.50;6.00;;;;;11.77;98.47;99510.84;6273249;20;2753456;-54
2022/10/03 04:00:04;;;;;;;;;8.00;8.00;;;;;11.87;98.76;99514.66;6275688;20;2739957;-53
2022/10/03 04:03:26;;;;;;;;;7.50;7.00;;;;;11.81;99.08;99521.31;6273158;20;2748228;-56
2022/10/03 04:06:35;;;;;;;;;7.00;7.00;;;;;11.76;99.58;99517.22;6276377;20;2731530;-55
2022/10/03 04:09:53;;;;;;;;;8.50;6.50;;;;;11.76;99.86;99515.38;6276796;20;2738995;-54
2022/10/03 04:12:39;;;;;;;;;8.00;8.00;;;;;11.74;100.00;99513.75;6276363;20;2758000;-50
2022/10/03 04:18:56;;;;;;;;;9.00;7.00;;;;;11.60;100.00;99520.97;6281542;20;2730509;-54
2022/10/03 04:19:55;;;;;;;;;8.57;7.14;;;;;11.68;100.00;99523.13;6329587;20;1804481;-53
2022/10/03 04:22:50;;;;;;;;;7.86;6.86;;;;;11.73;100.00;99526.34;6361710;20;1797278;-55
2022/10/03 04:25:27;;;;;;;;;8.00;8.00;;;;;11.71;100.00;99527.44;6320679;20;2744077;-53
2022/10/03 04:29:04;;;;;;;;;8.00;7.00;;;;;11.70;100.00;99523.03;6292554;20;2739899;-56
2022/10/03 04:32:00;;;;;;;;;12.20;9.80;;;;;11.61;100.00;99522.69;6308915;20;2779498;-54
2022/10/03 04:34:45;;;;;;;;;12.00;10.00;;;;;11.70;100.00;99526.56;6282449;20;2788800;-55
2022/10/03 04:38:14;;;;;;;;;8.00;8.00;;;;;11.63;100.00;99536.88;6316726;20;2737806;-55
2022/10/03 04:41:35;;;;;;;;;9.00;8.00;;;;;11.68;99.94;99535.72;6284061;20;2751411;-57
2022/10/03 04:44:52;;;;;;;;;8.60;8.60;;;;;11.65;99.37;99534.94;6311935;20;2756544;-56
2022/10/03 04:47:52;;;;;;;;;8.00;8.00;;;;;11.69;100.00;99541.00;6316212;20;2748195;-50
2022/10/03 04:50:43;;;;;;;;;11.50;10.50;;;;;11.65;99.72;99534.94;6286492;20;2793012;-56
2022/10/03 04:53:33;;;;;;;;;10.00;8.67;;;;;11.63;99.92;99544.94;6282713;20;2761764;-54
2022/10/03 04:56:44;;;;;;;;;9.80;9.80;;;;;11.61;100.00;99560.34;6342082;20;2787805;-55
2022/10/03 04:59:47;;;;;;;;;15.00;13.00;;;;;11.61;100.00;99554.09;6285762;20;2789890;-54
2022/10/03 05:03:11;;;;;;;;;8.25;7.00;;;;;11.53;100.00;99551.94;6301868;20;1808720;-49
2022/10/03 05:06:01;;;;;;;;;10.00;10.00;;;;;11.59;99.53;99561.41;6317100;20;2774242;-58
2022/10/03 05:09:04;;;;;;;;;10.00;8.50;;;;;11.70;99.64;99560.69;6286037;20;2758617;-56
2022/10/03 05:11:56;;;;;;;;;9.00;9.00;;;;;11.63;99.78;99565.59;6287518;20;2746220;-56
2022/10/03 05:15:10;;;;;;;;;9.00;9.00;;;;;11.56;100.00;99565.16;6309531;20;2750328;-53
2022/10/03 05:18:18;;;;;;;;;9.00;8.50;;;;;11.55;100.00;99563.44;6314390;20;2755533;-57
2022/10/03 05:21:15;;;;;;;;;11.00;9.20;;;;;11.62;100.00;99574.66;6309587;20;2765926;-54
2022/10/03 05:24:15;;;;;;;;;9.80;9.80;;;;;11.68;99.52;99576.91;6307271;20;2794621;-55
2022/10/03 05:27:34;;;;;;;;;10.67;10.67;;;;;11.64;99.66;99587.03;6280688;20;2798327;-54
2022/10/03 05:30:38;;;;;;;;;9.00;9.00;;;;;11.79;99.46;99595.00;6307647;20;2762788;-55
2022/10/03 05:34:11;;;;;;;;;11.50;10.00;;;;;11.85;99.01;99600.00;6305616;20;2789895;-55
2022/10/03 05:37:12;;;;;;;;;14.00;10.00;;;;;11.90;98.46;99595.19;6271543;20;2794070;-54
2022/10/03 05:40:28;;;;;;;;;11.40;11.00;;;;;11.95;97.84;99593.00;6298318;20;2790005;-56
2022/10/03 05:43:23;;;;;;;;;9.80;9.20;;;;;12.00;97.69;99592.72;6302456;20;2773203;-53
2022/10/03 05:46:01;;;;;;;;;10.00;10.00;;;;;12.06;97.37;99593.16;6280647;20;2790377;-53
2022/10/03 05:49:29;;;;;;;;;9.50;9.50;;;;;12.08;97.46;99591.22;6278911;20;2767077;-53
2022/10/03 05:52:15;;;;;;;;;12.00;10.67;;;;;12.14;97.20;99589.06;6277100;20;2792058;-54
2022/10/03 05:55:41;;;;;;;;;11.00;9.00;;;;;12.17;97.08;99583.47;6314256;20;2778432;-57
2022/10/03 05:58:18;;;;;;;;;10.00;9.00;;;;;12.25;97.20;99586.50;6282919;20;2767037;-50
2022/10/03 06:01:20;;;;;;;;;11.00;10.00;;;;;12.38;96.64;99589.19;6274839;20;2791998;-55
2022/10/03 06:04:55;;;;;;;;;10.50;8.00;;;;;12.50;96.14;99588.31;6279152;20;2758612;-55
2022/10/03 06:08:04;;;;;;;;;10.00;10.00;;;;;12.58;95.33;99598.53;6277695;20;2791943;-56
2022/10/03 06:10:50;;;;;;;;;11.67;10.00;;;;;12.72;95.09;99595.72;6276224;20;2789951;-53
2022/10/03 06:14:10;;;;;;;;;10.60;9.60;;;;;12.86;94.06;99610.88;6336823;20;2786026;-53
2022/10/03 06:17:46;;;;;;;;;10.80;10.40;;;;;12.94;93.13;99612.03;6302220;20;2785721;-53
2022/10/03 06:20:49;;;;;;;;;9.33;9.33;;;;;13.03;92.79;99623.97;6278685;20;2753428;-55
2022/10/03 06:24:18;;;;;;;;;9.00;9.00;;;;;13.15;92.08;99619.53;6313510;20;2767114;-53
2022/10/03 06:27:50;;;;;;;;;10.00;10.00;;;;;13.41;91.60;99619.50;6277504;20;2786778;-53
2022/10/03 06:30:51;;;;;;;;;9.00;9.00;;;;;13.35;90.56;99618.97;6280230;20;2751326;-55
2022/10/03 06:34:24;;;;;;;;;10.00;10.00;;;;;13.69;90.64;99619.16;6275195;20;2787763;-52
2022/10/03 06:37:07;;;;;;;;;10.00;10.00;;;;;13.74;89.72;99619.63;6276657;20;2792100;-54
2022/10/03 06:39:55;;;;;;;;;8.00;8.00;;;;;14.08;88.77;99622.47;6277468;20;2739917;-56
2022/10/03 06:42:52;;;;;;;;;7.40;7.40;;;;;13.79;88.05;99616.59;6304987;20;2756632;-54
2022/10/03 06:46:20;;;;;;;;;8.00;8.00;;;;;13.88;88.59;99625.84;6302030;20;2750339;-56
2022/10/03 06:49:20;;;;;;;;;10.00;9.00;;;;;14.26;86.64;99628.28;6305407;20;2771092;-52
2022/10/03 06:52:30;;;;;;;;;8.43;7.14;;;;;17.82;74.17;99643.28;6323883;20;3440992;-57
2022/10/03 06:55:49;;;;;;;;;12.20;9.00;;;;;19.88;64.41;99652.41;6334622;20;2763969;-59
2022/10/03 06:58:42;;;;;;;;;6.40;6.40;;;;;18.69;66.03;99645.91;6301408;20;2732689;-58
2022/10/03 07:01:51;;;;;;;;;6.86;5.43;;;;;15.87;75.83;99634.19;6352046;20;3440933;-58
2022/10/03 07:05:13;;;;;;;;;7.00;7.00;;;;;15.18;80.10;99630.94;6332441;20;2739878;-58
2022/10/03 07:08:39;;;;;;;;;7.50;7.00;;;;;14.94;80.56;99637.34;6309729;20;2738864;-57
2022/10/03 07:11:10;;;;;;;;;6.14;6.00;;;;;14.50;81.08;99639.00;6319484;20;3442983;-57
2022/10/03 07:14:07;;;;;;;;;6.50;5.00;;;;;14.74;80.08;99648.88;6310883;20;2743058;-58
2022/10/03 07:17:11;;;;;;;;;6.50;5.00;;;;;15.15;79.84;99650.97;6283652;20;2740895;-56
2022/10/03 07:20:25;;;;;;;;;8.80;5.60;;;;;15.02;79.73;99659.22;6306079;20;2739900;-55
2022/10/03 07:23:33;;;;;;;;;6.00;6.00;;;;;15.27;78.73;99659.91;6280437;20;2746211;-55
2022/10/03 07:26:53;;;;;;;;;6.50;6.00;;;;;14.89;77.75;99658.47;6280630;20;2739891;-59
2022/10/03 07:29:54;;;;;;;;;5.00;5.00;;;;;14.91;77.63;99653.81;6281334;20;2736828;-56
2022/10/03 07:33:00;;;;;;;;;9.00;5.00;;;;;14.86;77.01;99658.72;6281963;20;2746095;-56
2022/10/03 07:40:00;;;;;;;;;5.00;5.00;;;;;15.37;76.11;99659.03;6279803;20;2735735;-58
2022/10/03 07:43:09;;;;;;;;;8.00;5.00;;;;;15.78;75.11;99662.06;6286221;20;2725332;-59
2022/10/03 07:45:44;;;;;;;;;5.00;4.00;;;;;15.33;74.59;99656.75;6278959;20;2741978;-59
2022/10/03 07:48:56;;;;;;;;;7.00;5.00;;;;;15.64;74.30;99656.88;6277673;20;2742027;-55
2022/10/03 07:52:27;;;;;;;;;6.00;5.00;;;;;15.58;73.78;99667.25;6276900;20;2743006;-58
2022/10/03 07:55:26;;;;;;;;;6.50;4.00;;;;;15.61;73.56;99670.69;6281153;20;2749261;-59
2022/10/03 07:58:18;;;;;;;;;5.50;4.00;;;;;15.84;73.16;99672.38;6279798;20;2743106;-59
2022/10/03 08:01:35;;;;;;;;;5.00;3.00;;;;;15.56;71.34;99663.81;6282045;20;2771184;-57
2022/10/03 08:04:51;;;;;;;;;3.00;3.00;;;;;15.61;71.36;99670.69;6282232;20;2748215;-58
2022/10/03 08:07:57;;;;;;;;;4.00;3.00;;;;;15.82;70.50;99679.75;6280032;20;2736743;-61
2022/10/03 08:10:59;;;;;;;;;7.00;3.50;;;;;15.62;71.61;99661.59;6279759;20;2745213;-59
2022/10/03 08:13:41;;;;;;;;;2.50;2.50;;;;;16.08;72.06;99679.41;6281431;20;2730496;-59
2022/10/03 08:16:32;;;;;;;;;4.00;3.00;;;;;15.95;70.73;99676.88;6279508;20;2747160;-60
2022/10/03 08:19:22;;;;;;;;;3.50;3.00;;;;;15.91;69.41;99681.72;6283971;20;2740278;-59
2022/10/03 08:22:46;;;;;;;;;3.00;3.00;;;;;16.14;68.97;99676.19;6281408;20;2739930;-59
2022/10/03 08:25:35;;;;;;;;;7.00;3.50;;;;;15.91;68.71;99676.28;6279205;20;2754501;-60
2022/10/03 08:28:37;;;;;;;;;6.00;4.00;;;;;15.97;68.71;99678.47;6280468;20;2754454;-59
2022/10/03 08:32:14;;;;;;;;;5.00;5.00;;;;;15.90;67.62;99677.25;6282936;20;2748343;-58
2022/10/03 08:35:22;;;;;;;;;2.00;2.00;;;;;16.09;68.08;99673.88;6278995;20;2724339;-60
2022/10/03 08:39:05;;;;;;;;;6.50;3.00;;;;;16.41;68.22;99676.53;6277445;20;2749409;-59
2022/10/03 08:42:02;;;;;;;;;3.00;3.00;;;;;16.46;67.48;99679.72;6273904;20;2735743;-57
2022/10/03 08:45:16;;;;;;;;;2.50;2.50;;;;;16.74;66.28;99677.31;6277182;20;2740933;-58
2022/10/03 08:48:34;;;;;;;;;2.00;2.00;;;;;16.54;66.88;99683.63;6277446;20;2748275;-59
2022/10/03 08:51:44;;;;;;;;;4.00;2.50;;;;;16.41;66.56;99673.84;6280145;20;2744070;-59
2022/10/03 08:54:52;;;;;;;;;1.00;0.00;;;;;16.46;64.98;99684.28;6278046;20;2739882;-61
2022/10/03 08:57:41;;;;;;;;;6.00;3.00;;;;;16.76;65.29;99691.59;6281598;20;2748195;-57
2022/10/03 09:00:22;;;;;;;;;1.50;1.50;;;;;16.21;66.59;99680.09;6281492;20;2754509;-52
2022/10/03 09:02:59;;;;;;;;;2.00;2.00;;;;;16.43;65.21;99693.53;6281340;20;2738856;-53
2022/10/03 09:06:36;;;;;;;;;3.00;2.00;;;;;16.56;65.36;99701.47;6283437;20;2744234;-56
2022/10/03 09:10:00;;;;;;;;;3.00;1.00;;;;;16.76;63.81;99697.03;6284781;20;2733661;-57
2022/10/03 09:12:42;;;;;;;;;3.00;3.00;;;;;16.82;65.12;99699.22;6285170;20;2747204;-57
2022/10/03 09:15:49;;;;;;;;;6.00;3.00;;;;;16.43;65.39;99701.66;6285456;20;2750400;-57
2022/10/03 09:18:44;;;;;;;;;3.00;3.00;;;;;16.63;64.89;99696.38;6286348;20;2742025;-51
2022/10/03 09:22:16;;;;;;;;;3.40;2.00;;;;;16.59;63.52;99690.38;6316422;20;2750277;-55
2022/10/03 09:25:15;;;;;;;;;3.00;3.00;;;;;16.87;64.24;99698.81;6308741;20;2742982;-55
2022/10/03 09:28:39;;;;;;;;;3.00;3.00;;;;;16.93;62.62;99706.44;6279901;20;2750294;-54
2022/10/03 09:32:00;;;;;;;;;0.50;0.50;;;;;16.06;62.62;99692.22;6285099;20;2730571;-50
2022/10/03 09:35:32;;;;;;;;;3.00;2.00;;;;;16.32;63.15;99709.84;6285856;20;2732641;-52
2022/10/03 09:38:36;;;;;;;;;1.00;1.00;;;;;16.45;62.99;99699.66;6285521;20;2740671;-51
2022/10/03 09:41:32;;;;;;;;;4.00;2.50;;;;;16.50;63.71;99706.56;6284749;20;2745142;-51
2022/10/03 09:44:29;;;;;;;;;4.00;3.00;;;;;16.62;62.18;99706.34;6283877;20;2756537;-51
2022/10/03 09:47:40;;;;;;;;;3.00;3.00;;;;;16.67;62.00;99693.25;6281556;20;2755680;-52
2022/10/03 09:51:18;;;;;;;;;3.00;2.00;;;;;16.17;61.36;99694.91;6287365;20;2739920;-53
2022/10/03 09:54:28;;;;;;;;;3.50;0.00;;;;;16.30;62.50;99690.16;6283269;20;2731570;-51
2022/10/03 09:57:39;;;;;;;;;2.00;2.00;;;;;16.81;62.35;99694.81;6280791;20;2744063;-49
2022/10/03 10:00:25;;;;;;;;;2.00;2.00;;;;;16.97;61.48;99688.03;6280367;20;2752428;-57
2022/10/03 10:03:26;;;;;;;;;3.60;2.60;;;;;17.23;61.58;99685.72;6299014;20;2750306;-55
2022/10/03 10:06:22;;;;;;;;;3.00;3.00;;;;;16.86;61.61;99680.84;6352441;20;3455498;-54
2022/10/03 10:09:47;;;;;;;;;2.50;2.50;;;;;16.64;63.72;99689.94;6311239;20;2752516;-52
2022/10/03 10:12:49;;;;;;;;;2.00;2.00;;;;;16.88;63.39;99678.88;6283694;20;2744035;-53
2022/10/03 10:16:12;;;;;;;;;2.00;2.00;;;;;16.67;63.30;99692.41;6282505;20;2730573;-49
2022/10/03 10:19:31;;;;;;;;;3.00;3.00;;;;;16.99;62.69;99703.19;6283415;20;2745082;-54
2022/10/03 10:22:27;;;;;;;;;2.00;2.00;;;;;16.92;62.39;99695.72;6282197;20;2755588;-50
2022/10/03 10:25:48;;;;;;;;;2.00;2.00;;;;;16.72;60.71;99690.16;6286445;20;2741962;-52
2022/10/03 10:28:54;;;;;;;;;3.40;2.40;;;;;16.82;60.35;99706.50;6320358;20;2479480;-54
2022/10/03 10:32:19;;;;;;;;;4.00;4.00;;;;;16.83;59.33;99703.66;6312758;20;2748204;-49
2022/10/03 10:35:27;;;;;;;;;2.00;2.00;;;;;17.08;59.09;99712.34;6280264;20;2753490;-52
2022/10/03 10:39:13;;;;;;;;;5.50;2.00;;;;;17.09;59.40;99719.50;6278429;20;2754621;-52
2022/10/03 10:42:50;;;;;;;;;1.50;1.00;;;;;17.04;58.58;99705.50;6276269;20;2720165;-54
2022/10/03 10:46:03;;;;;;;;;2.00;2.00;;;;;17.55;58.85;99705.38;6277942;20;2750352;-53
2022/10/03 10:48:58;;;;;;;;;2.00;2.00;;;;;17.19;59.84;99708.69;6284971;20;2723214;-50
2022/10/03 10:52:36;;;;;;;;;3.00;3.00;;;;;17.12;59.77;99708.38;6283426;20;2748220;-51
2022/10/03 10:56:07;;;;;;;;;4.00;2.00;;;;;17.18;59.06;99699.69;6278184;20;2739863;-53
2022/10/03 10:58:44;;;;;;;;;4.00;2.00;;;;;16.96;59.09;99699.88;6279924;20;2748267;-47
2022/10/03 11:02:22;;;;;;;;;2.00;2.00;;;;;17.32;57.63;99710.19;6283898;20;2744030;-51
2022/10/03 11:05:33;;;;;;;;;3.00;3.00;;;;;17.52;58.56;99715.69;6278785;20;2738954;-51
2022/10/03 11:08:55;;;;;;;;;2.00;2.00;;;;;17.38;58.83;99702.47;6285006;20;2746151;-49
2022/10/03 11:12:40;;;;;;;;;3.00;3.00;;;;;17.09;59.23;99708.66;6282354;20;2731706;-50
2022/10/03 11:15:34;;;;;;;;;3.50;3.00;;;;;17.12;61.07;99713.81;6279559;20;2734788;-50
2022/10/03 11:18:28;;;;;;;;;2.00;2.00;;;;;16.81;60.18;99705.66;6281488;20;2750294;-53
2022/10/03 11:21:49;;;;;;;;;4.00;3.00;;;;;16.99;62.36;99710.47;6280545;20;2749437;-53
2022/10/03 11:25:20;;;;;;;;;5.00;3.00;;;;;16.52;61.40;99715.41;6274915;20;2733760;-54
2022/10/03 11:28:15;;;;;;;;;2.00;2.00;;;;;16.16;63.91;99712.13;6282447;20;2744090;-50
2022/10/03 11:31:40;;;;;;;;;4.00;2.00;;;;;16.37;64.02;99726.56;6281417;20;2750282;-51
2022/10/03 11:35:32;;;;;;;;;3.00;2.00;;;;;15.96;63.47;99719.25;6282885;20;2746167;-50
2022/10/03 11:38:25;;;;;;;;;2.00;2.00;;;;;16.17;63.31;99716.59;6279586;20;2741980;-52
2022/10/03 11:41:32;;;;;;;;;2.00;0.00;;;;;16.84;60.76;99721.66;6268766;20;2735837;-48
2022/10/03 11:44:24;;;;;;;;;3.00;2.00;;;;;16.70;61.30;99721.13;6283225;20;2752358;-50
2022/10/03 11:47:24;;;;;;;;;3.00;1.50;;;;;16.58;62.32;99721.16;6279731;20;2737797;-48
2022/10/03 11:50:30;;;;;;;;;6.00;1.00;;;;;16.13;63.76;99725.94;6282323;20;2739863;-49
2022/10/03 11:53:14;;;;;;;;;2.00;2.00;;;;;15.87;64.84;99693.78;6281375;20;2734709;-50
2022/10/03 11:55:53;;;;;;;;;4.20;4.20;;;;;15.88;63.95;99714.47;6305525;20;2736791;-50
2022/10/03 11:58:56;;;;;;;;;1.00;1.00;;;;;16.42;63.22;99718.03;6305385;20;2735749;-48
2022/10/03 12:01:55;;;;;;;;;3.00;2.00;;;;;16.35;62.51;99709.59;6283291;20;2748287;-49
2022/10/03 12:05:06;;;;;;;;;0.50;0.50;;;;;16.31;63.50;99721.69;6285359;20;2733698;-49
2022/10/03 12:11:32;;;;;;;;;5.00;2.00;;;;;15.46;68.98;99727.81;6281549;20;2751367;-49
2022/10/03 12:14:09;;;;;;;;;2.00;2.00;;;;;14.82;75.27;99730.22;6282201;20;2741988;-49
2022/10/03 12:17:05;;;;;;;;;4.00;4.00;;;;;15.19;76.77;99716.47;6281786;20;2739952;-51
2022/10/03 12:19:55;;;;;;;;;3.00;2.00;;;;;15.68;76.31;99731.44;6279795;20;2748218;-53
2022/10/03 12:22:53;;;;;;;;;4.00;3.00;;;;;16.07;74.77;99721.03;6285319;20;2748220;-51
2022/10/03 12:25:32;;;;;;;;;3.50;3.50;;;;;16.18;73.77;99724.56;6283084;20;2746110;-49
2022/10/03 12:28:30;;;;;;;;;2.00;2.00;;;;;16.38;72.58;99717.47;6284215;20;2741970;-53
2022/10/03 12:31:23;;;;;;;;;3.50;3.50;;;;;15.97;72.96;99715.53;6283197;20;2739922;-47
2022/10/03 12:34:32;;;;;;;;;2.50;2.50;;;;;15.69;74.62;99723.25;6279152;20;2744053;-50
2022/10/03 12:37:17;;;;;;;;;6.00;5.00;;;;;15.51;77.64;99725.59;6284179;20;2747353;-48
2022/10/03 12:40:57;;;;;;;;;3.00;3.00;;;;;15.65;77.24;99720.88;6291302;20;2740938;-54
2022/10/03 12:44:18;;;;;;;;;2.00;2.00;;;;;15.93;75.67;99714.94;6288247;20;2740927;-50
2022/10/03 12:47:03;;;;;;;;;2.00;2.00;;;;;16.20;74.06;99710.91;6285548;20;2744182;-49
2022/10/03 12:50:09;;;;;;;;;4.00;2.00;;;;;16.38;72.68;99714.75;6284306;20;2737799;-52
2022/10/03 12:53:11;;;;;;;;;5.00;3.00;;;;;16.73;70.27;99718.97;6289790;20;2756556;-50
2022/10/03 12:56:14;;;;;;;;;2.00;2.00;;;;;16.73;69.18;99723.56;6287188;20;2755513;-51
2022/10/03 12:59:25;;;;;;;;;4.00;3.00;;;;;16.88;69.12;99722.25;6287565;20;2734746;-51
2022/10/03 13:02:34;;;;;;;;;3.00;3.00;;;;;16.64;69.22;99717.06;6290048;20;2735801;-51
2022/10/03 13:05:28;;;;;;;;;2.00;2.00;;;;;16.20;69.64;99722.59;6287486;20;2752376;-48
2022/10/03 13:08:50;;;;;;;;;2.00;2.00;;;;;16.11;70.12;99717.06;6287606;20;2756533;-48
2022/10/03 13:12:00;;;;;;;;;3.00;3.00;;;;;16.02;69.70;99725.00;6289702;20;2733626;-50
2022/10/03 13:14:40;;;;;;;;;1.50;0.50;;;;;16.12;69.02;99729.66;6287979;20;2726324;-49
2022/10/03 13:18:27;;;;;;;;;3.00;2.00;;;;;15.79;69.73;99721.47;6287350;20;2750289;-54
2022/10/03 13:21:27;;;;;;;;;1.00;1.00;;;;;15.85;69.53;99724.66;6292350;20;2726460;-50
2022/10/03 13:24:54;;;;;;;;;0.00;0.00;;;;;16.20;67.34;99724.44;6289442;20;2727407;-53
2022/10/03 13:27:29;;;;;;;;;0.00;0.00;;;;;16.11;66.79;99715.22;6287336;20;2735814;-47
2022/10/03 13:30:31;;;;;;;;;2.00;2.00;;;;;16.41;67.39;99708.22;6286852;20;2730550;-50
2022/10/03 13:33:19;;;;;;;;;2.50;2.50;;;;;16.45;66.53;99706.94;6286289;20;2744186;-50
2022/10/03 13:36:13;;;;;;;;;1.00;1.00;;;;;16.64;65.54;99707.09;6289166;20;2728832;-52
2022/10/03 13:39:25;;;;;;;;;0.00;0.00;;;;;16.46;64.64;99706.81;6282086;20;2733728;-48
2022/10/03 13:42:33;;;;;;;;;2.00;2.00;;;;;16.24;65.61;99707.81;6288623;20;2744120;-49
2022/10/03 13:45:14;;;;;;;;;1.50;1.50;;;;;16.46;64.07;99705.97;6288714;20;2728585;-54
2022/10/03 13:47:58;;;;;;;;;0.00;0.00;;;;;16.42;65.12;99699.94;6280694;20;2727372;-49
2022/10/03 13:50:32;;;;;;;;;0.00;0.00;;;;;16.28;64.67;99702.97;6285386;20;2727407;-48
2022/10/03 13:53:35;;;;;;;;;0.00;0.00;;;;;16.42;63.56;99699.94;6289399;20;2733772;-50
2022/10/03 13:56:54;;;;;;;;;3.00;3.00;;;;;16.24;62.92;99698.78;6288777;20;2742098;-52
2022/10/03 14:00:11;;;;;;;;;2.00;2.00;;;;;16.06;63.07;99684.97;6284497;20;2734655;-46
2022/10/03 14:03:24;;;;;;;;;2.00;2.00;;;;;15.80;63.64;99685.31;6289532;20;2732698;-51
2022/10/03 14:06:55;;;;;;;;;3.00;2.00;;;;;15.59;64.49;99684.34;6279242;20;2739000;-53
2022/10/03 14:09:50;;;;;;;;;4.00;2.00;;;;;15.64;64.16;99686.66;6287725;20;2748209;-49
2022/10/03 14:13:10;;;;;;;;;1.75;1.75;;;;;15.78;64.89;99679.16;6305658;20;1799531;-52
2022/10/03 14:16:40;;;;;;;;;2.00;2.00;;;;;15.68;65.85;99678.16;6314327;20;2729574;-50
2022/10/03 14:20:02;;;;;;;;;1.75;1.75;;;;;15.73;65.82;99680.53;6300750;20;1800436;-50
2022/10/03 14:23:05;;;;;;;;;1.00;1.00;;;;;15.67;66.39;99683.72;6314775;20;2727485;-48